Time;durP1;ratioP1;P1;durP2;ratioP2;P2;SDS_P1;SDS_P2;PMS_P1;PMS_P2;Temp;Humidity;BMP_temperature;BMP_pressure;BME280_temperature;BME280_humidity;BME280_pressure;Samples;Min_cycle;Max_cycle;Signal;HPM_P1;HPM_P2
2023/04/25 00:00:27;;;;;;;2.20;1.58;;;;;;;;;;10360586;28;20081;-84
2023/04/25 00:05:31;;;;;;;3.15;1.77;;;;;;;;;;10362138;28;20141;-84
2023/04/25 00:10:34;;;;;;;2.60;1.77;;;;;;;;;;10362390;28;20108;-84
2023/04/25 00:15:41;;;;;;;2.38;1.90;;;;;;;;;;10365544;28;20046;-83
2023/04/25 00:20:46;;;;;;;2.28;1.98;;;;;;;;;;10368324;28;20038;-88
2023/04/25 00:25:50;;;;;;;3.42;2.25;;;;;;;;;;10367306;28;20050;-83
2023/04/25 00:30:55;;;;;;;2.47;2.25;;;;;;;;;;10369985;28;20053;-84
2023/04/25 00:35:59;;;;;;;2.22;1.67;;;;;;;;;;10367262;28;20042;-85
2023/04/25 00:41:02;;;;;;;2.58;1.80;;;;;;;;;;10368023;28;20474;-84
2023/04/25 00:46:07;;;;;;;1.85;1.70;;;;;;;;;;10368663;28;20136;-86
2023/04/25 00:51:17;;;;;;;2.40;1.75;;;;;;;;;;10366314;28;20059;-85
2023/04/25 00:56:21;;;;;;;2.45;1.90;;;;;;;;;;10363431;28;20044;-88
2023/04/25 01:01:26;;;;;;;3.00;1.73;;;;;;;;;;10365667;28;20484;-87
2023/04/25 01:06:30;;;;;;;2.53;2.10;;;;;;;;;;10367389;28;20092;-86
2023/04/25 01:11:34;;;;;;;3.20;2.30;;;;;;;;;;10367121;28;20049;-86
2023/04/25 01:16:39;;;;;;;2.08;1.73;;;;;;;;;;10367672;28;20548;-84
2023/04/25 01:21:45;;;;;;;2.22;1.85;;;;;;;;;;10366226;28;20548;-84
2023/04/25 01:26:50;;;;;;;2.77;1.80;;;;;;;;;;10366182;28;20050;-84
2023/04/25 01:31:59;;;;;;;2.30;1.90;;;;;;;;;;10366139;28;20297;-84
2023/04/25 01:37:07;;;;;;;2.55;2.15;;;;;;;;;;10366479;28;20567;-85
2023/04/25 01:42:11;;;;;;;4.70;2.05;;;;;;;;;;10364707;28;20044;-87
2023/04/25 01:47:53;;;;;;;2.90;1.90;;;;;;;;;;10294252;28;20034;-84
2023/04/25 01:52:58;;;;;;;3.03;2.08;;;;;;;;;;10315632;28;20046;-84
2023/04/25 01:58:03;;;;;;;5.10;1.90;;;;;;;;;;10291498;28;20069;-84
2023/04/25 02:03:27;;;;;;;4.47;1.87;;;;;;;;;;10300621;28;20038;-83
2023/04/25 02:08:33;;;;;;;2.25;2.03;;;;;;;;;;10316449;28;20100;-84
2023/04/25 02:13:36;;;;;;;2.42;2.03;;;;;;;;;;10305381;28;20066;-84
2023/04/25 02:18:52;;;;;;;2.55;2.08;;;;;;;;;;10314880;28;20046;-83
2023/04/25 02:23:57;;;;;;;4.45;2.10;;;;;;;;;;10317202;28;20588;-83
2023/04/25 02:29:01;;;;;;;4.25;2.40;;;;;;;;;;10306654;28;20039;-84
2023/04/25 02:34:04;;;;;;;3.00;1.95;;;;;;;;;;10306923;28;20394;-84
2023/04/25 02:39:12;;;;;;;2.85;2.28;;;;;;;;;;10313050;28;20049;-83
2023/04/25 02:44:15;;;;;;;3.55;2.05;;;;;;;;;;10297610;28;20038;-83
2023/04/25 02:49:21;;;;;;;2.90;2.03;;;;;;;;;;10320320;28;20125;-87
2023/04/25 02:54:25;;;;;;;3.13;2.30;;;;;;;;;;10327568;28;20584;-86
2023/04/25 02:59:30;;;;;;;3.15;2.00;;;;;;;;;;10312210;28;20150;-87
2023/04/25 03:04:35;;;;;;;2.55;2.15;;;;;;;;;;10343716;28;20185;-87
2023/04/25 03:09:40;;;;;;;2.65;2.03;;;;;;;;;;10298966;28;20066;-86
2023/04/25 03:14:44;;;;;;;2.42;1.88;;;;;;;;;;10309850;28;20039;-87
2023/04/25 03:19:47;;;;;;;4.28;2.30;;;;;;;;;;10295013;28;20057;-87
2023/04/25 03:24:52;;;;;;;3.35;2.20;;;;;;;;;;10298226;28;20050;-86
2023/04/25 03:29:56;;;;;;;3.40;2.40;;;;;;;;;;10305399;28;20581;-86
2023/04/25 03:35:00;;;;;;;3.15;2.25;;;;;;;;;;10306820;28;20104;-86
2023/04/25 03:40:09;;;;;;;3.63;2.60;;;;;;;;;;10298607;28;20523;-87
2023/04/25 03:45:35;;;;;;;3.38;2.50;;;;;;;;;;10305846;28;20051;-86
2023/04/25 03:50:39;;;;;;;3.20;2.35;;;;;;;;;;10289288;28;20043;-86
2023/04/25 03:55:44;;;;;;;2.90;1.85;;;;;;;;;;10307689;28;20309;-87
2023/04/25 04:00:49;;;;;;;4.05;2.22;;;;;;;;;;10286307;28;20039;-87
2023/04/25 04:05:53;;;;;;;3.00;2.13;;;;;;;;;;10328979;28;20042;-87
2023/04/25 04:10:59;;;;;;;3.88;2.25;;;;;;;;;;10316804;28;20034;-87
2023/04/25 04:16:04;;;;;;;3.95;2.17;;;;;;;;;;10315856;28;20101;-83
2023/04/25 04:21:07;;;;;;;3.22;2.00;;;;;;;;;;10301270;28;20035;-83
2023/04/25 04:26:16;;;;;;;4.50;1.88;;;;;;;;;;10301490;28;20042;-83
2023/04/25 04:31:33;;;;;;;3.65;1.98;;;;;;;;;;10313840;28;20046;-84
2023/04/25 04:36:37;;;;;;;3.33;2.00;;;;;;;;;;10317997;28;20047;-83
2023/04/25 04:41:42;;;;;;;3.33;2.00;;;;;;;;;;10319223;28;20591;-83
2023/04/25 04:46:50;;;;;;;6.93;2.35;;;;;;;;;;10296879;28;20043;-83
2023/04/25 04:52:22;;;;;;;5.18;1.80;;;;;;;;;;10293299;28;20038;-83
2023/04/25 04:57:30;;;;;;;3.60;1.73;;;;;;;;;;10303391;28;20061;-84
2023/04/25 05:02:52;;;;;;;4.03;1.80;;;;;;;;;;10308780;28;20134;-82
2023/04/25 05:08:15;;;;;;;4.03;1.83;;;;;;;;;;10304999;28;20260;-82
2023/04/25 05:13:37;;;;;;;2.60;1.40;;;;;;;;;;10322749;28;20054;-86
2023/04/25 05:18:51;;;;;;;3.22;1.48;;;;;;;;;;10297808;28;20035;-83
2023/04/25 05:24:09;;;;;;;4.38;1.98;;;;;;;;;;10303020;28;20050;-87
2023/04/25 05:29:33;;;;;;;5.88;2.90;;;;;;;;;;10301911;28;20050;-83
2023/04/25 05:34:42;;;;;;;3.38;2.05;;;;;;;;;;10296375;28;20134;-89
2023/04/25 05:39:56;;;;;;;5.97;2.70;;;;;;;;;;10309615;28;20046;-83
2023/04/25 05:45:13;;;;;;;5.28;2.67;;;;;;;;;;10341159;28;20052;-82
2023/04/25 05:50:31;;;;;;;7.15;3.40;;;;;;;;;;10305669;28;20070;-82
2023/04/25 05:55:47;;;;;;;8.88;4.05;;;;;;;;;;10321010;28;20046;-88
2023/04/25 06:01:04;;;;;;;11.13;4.85;;;;;;;;;;10305950;28;20046;-84
2023/04/25 06:06:28;;;;;;;8.85;3.40;;;;;;;;;;10275087;28;20042;-84
2023/04/25 06:11:34;;;;;;;8.13;3.28;;;;;;;;;;10296439;28;20035;-83
2023/04/25 06:16:40;;;;;;;4.93;3.08;;;;;;;;;;10295877;28;20054;-84
2023/04/25 06:21:45;;;;;;;4.22;2.25;;;;;;;;;;10281487;28;20128;-84
2023/04/25 06:26:48;;;;;;;3.85;2.03;;;;;;;;;;10275411;28;20595;-84
2023/04/25 06:31:54;;;;;;;8.00;2.60;;;;;;;;;;10275373;28;20046;-83
2023/04/25 06:36:58;;;;;;;7.43;3.43;;;;;;;;;;10288945;28;20038;-83
2023/04/25 06:42:02;;;;;;;3.83;2.38;;;;;;;;;;10291080;28;20333;-85
2023/04/25 06:47:39;;;;;;;;;;;;;;;;;;10278302;28;20047;-85
2023/04/25 06:52:44;;;;;;;5.50;2.60;;;;;;;;;;10294328;28;19922;-86
2023/04/25 06:57:48;;;;;;;7.78;4.72;;;;;;;;;;10287600;28;20645;-86
2023/04/25 07:03:15;;;;;;;8.07;3.25;;;;;;;;;;10295961;28;20458;-85
2023/04/25 07:08:21;;;;;;;4.53;2.08;;;;;;;;;;10284531;28;20199;-85
2023/04/25 07:13:24;;;;;;;5.53;2.75;;;;;;;;;;10296176;28;20697;-86
2023/04/25 07:18:29;;;;;;;4.95;2.47;;;;;;;;;;10304125;28;20042;-85
2023/04/25 07:23:34;;;;;;;;;;;;;;;;;;10323545;28;20501;-86
2023/04/25 07:28:44;;;;;;;7.10;2.78;;;;;;;;;;10300166;28;19976;-86
2023/04/25 07:33:49;;;;;;;4.78;2.58;;;;;;;;;;10301401;28;20043;-84
2023/04/25 07:38:52;;;;;;;6.22;2.30;;;;;;;;;;10310946;28;20050;-85
2023/04/25 07:44:02;;;;;;;3.22;2.03;;;;;;;;;;10368783;22;20066;-88
2023/04/25 07:49:08;;;;;;;4.75;1.90;;;;;;;;;;10406315;28;20862;-88
2023/04/25 07:54:15;;;;;;;7.72;3.00;;;;;;;;;;10399073;28;20115;-88
2023/04/25 07:59:27;;;;;;;6.38;2.63;;;;;;;;;;10387245;28;20051;-87
2023/04/25 08:04:34;;;;;;;6.32;2.58;;;;;;;;;;10398632;28;20060;-88
2023/04/25 08:09:40;;;;;;;5.05;2.92;;;;;;;;;;10399598;28;20069;-88
2023/04/25 08:15:02;;;;;;;4.18;2.20;;;;;;;;;;10401438;28;20573;-85
2023/04/25 08:20:13;;;;;;;6.38;3.47;;;;;;;;;;10418069;28;20498;-85
2023/04/25 08:25:17;;;;;;;7.40;2.70;;;;;;;;;;10396103;28;20107;-85
2023/04/25 08:30:20;;;;;;;5.18;2.75;;;;;;;;;;10398657;28;20045;-85
2023/04/25 08:35:25;;;;;;;7.57;2.78;;;;;;;;;;10403732;28;20072;-85
2023/04/25 08:40:30;;;;;;;4.22;2.72;;;;;;;;;;10429343;28;20049;-87
2023/04/25 08:45:42;;;;;;;5.68;2.08;;;;;;;;;;10420739;28;20071;-88
2023/04/25 08:50:52;;;;;;;2.70;1.85;;;;;;;;;;10408989;28;20057;-88
2023/04/25 08:55:58;;;;;;;4.57;2.15;;;;;;;;;;10423750;28;20057;-88
2023/04/25 09:01:01;;;;;;;7.97;3.20;;;;;;;;;;10401391;28;20029;-88
2023/04/25 09:06:12;;;;;;;6.43;3.10;;;;;;;;;;10427312;28;20033;-88
2023/04/25 09:11:15;;;;;;;4.25;2.83;;;;;;;;;;10405886;28;20534;-88
2023/04/25 09:16:21;;;;;;;7.65;3.55;;;;;;;;;;10411341;28;20410;-88
2023/04/25 09:21:46;;;;;;;5.28;2.60;;;;;;;;;;10425685;28;20049;-86
2023/04/25 09:26:50;;;;;;;7.43;3.00;;;;;;;;;;10399586;28;20082;-86
2023/04/25 09:32:11;;;;;;;8.27;3.40;;;;;;;;;;10407380;28;20049;-86
2023/04/25 09:37:20;;;;;;;7.28;2.88;;;;;;;;;;10426935;28;20037;-85
2023/04/25 09:42:43;;;;;;;5.22;2.47;;;;;;;;;;10429003;28;20041;-88
2023/04/25 09:47:46;;;;;;;9.27;2.65;;;;;;;;;;10405080;28;20033;-86
2023/04/25 09:53:05;;;;;;;4.93;1.70;;;;;;;;;;10410303;28;20413;-88
2023/04/25 09:58:36;;;;;;;5.78;2.38;;;;;;;;;;10421998;28;20430;-88
2023/04/25 10:03:41;;;;;;;6.72;2.28;;;;;;;;;;10419068;28;20045;-86
2023/04/25 10:09:13;;;;;;;5.72;2.05;;;;;;;;;;10409904;28;20600;-85
2023/04/25 10:14:17;;;;;;;6.73;2.37;;;;;;;;;;10397610;28;20380;-88
2023/04/25 10:19:21;;;;;;;5.47;2.10;;;;;;;;;;10426402;28;20417;-87
2023/04/25 10:24:26;;;;;;;7.32;2.90;;;;;;;;;;10413021;28;20041;-86
2023/04/25 10:29:30;;;;;;;6.77;2.53;;;;;;;;;;10376663;28;20693;-89
2023/04/25 10:34:41;;;;;;;4.10;1.50;;;;;;;;;;10384959;28;20408;-86
2023/04/25 10:39:46;;;;;;;6.53;2.60;;;;;;;;;;10374980;28;20058;-86
2023/04/25 10:45:05;;;;;;;4.68;2.00;;;;;;;;;;10385143;28;20449;-86
2023/04/25 10:50:10;;;;;;;4.70;2.20;;;;;;;;;;10380034;28;20092;-86
2023/04/25 10:55:15;;;;;;;5.45;2.20;;;;;;;;;;10390110;28;20072;-86
2023/04/25 11:00:20;;;;;;;5.57;1.60;;;;;;;;;;10401587;28;20041;-85
2023/04/25 11:05:30;;;;;;;5.10;1.60;;;;;;;;;;10411928;28;20047;-88
2023/04/25 11:10:36;;;;;;;5.38;1.83;;;;;;;;;;10411503;28;20299;-85
2023/04/25 11:15:39;;;;;;;5.63;2.10;;;;;;;;;;10406197;28;20516;-86
2023/04/25 11:20:44;;;;;;;3.78;1.50;;;;;;;;;;10413235;28;20126;-86
2023/04/25 11:25:51;;;;;;;7.53;2.22;;;;;;;;;;10401456;28;20141;-85
2023/04/25 11:30:55;;;;;;;3.95;1.80;;;;;;;;;;10403837;28;20098;-85
2023/04/25 11:35:58;;;;;;;3.90;2.15;;;;;;;;;;10420899;28;20130;-85
2023/04/25 11:41:04;;;;;;;2.92;1.38;;;;;;;;;;10393688;28;20041;-85
2023/04/25 11:46:08;;;;;;;2.40;1.40;;;;;;;;;;10405507;28;20041;-86
2023/04/25 11:51:12;;;;;;;3.60;1.50;;;;;;;;;;10424160;28;20095;-85
2023/04/25 11:56:16;;;;;;;4.18;1.63;;;;;;;;;;10421940;28;20497;-86
2023/04/25 12:01:32;;;;;;;3.92;1.73;;;;;;;;;;10406091;28;20045;-86
2023/04/25 12:06:39;;;;;;;7.45;2.40;;;;;;;;;;10393069;28;20122;-88
2023/04/25 12:11:45;;;;;;;5.43;1.83;;;;;;;;;;10421019;28;20045;-87
2023/04/25 12:16:51;;;;;;;6.00;1.90;;;;;;;;;;10419041;28;20045;-87
2023/04/25 12:21:54;;;;;;;3.40;1.20;;;;;;;;;;10406601;28;20128;-88
2023/04/25 12:27:02;;;;;;;;;;;;;;;;;;10422881;28;20043;-87
2023/04/25 12:32:06;;;;;;;3.85;1.58;;;;;;;;;;10426688;28;19967;-88
2023/04/25 12:37:09;;;;;;;6.82;2.08;;;;;;;;;;10436038;28;20116;-88
2023/04/25 12:42:14;;;;;;;4.60;1.70;;;;;;;;;;10413183;28;20392;-86
2023/04/25 12:47:17;;;;;;;6.82;2.33;;;;;;;;;;10419706;28;20056;-87
2023/04/25 12:52:20;;;;;;;5.20;1.40;;;;;;;;;;10428050;28;20521;-88
2023/04/25 12:57:25;;;;;;;2.03;1.08;;;;;;;;;;10400300;28;20124;-87
2023/04/25 13:02:29;;;;;;;8.15;2.40;;;;;;;;;;10384676;28;20046;-88
2023/04/25 13:07:33;;;;;;;4.07;1.40;;;;;;;;;;10376725;28;20045;-87
2023/04/25 13:12:38;;;;;;;4.35;1.63;;;;;;;;;;10399882;28;20522;-87
2023/04/25 13:17:41;;;;;;;2.78;1.23;;;;;;;;;;10377030;28;20037;-87
2023/04/25 13:22:45;;;;;;;4.95;1.42;;;;;;;;;;10365812;28;20136;-87
2023/04/25 13:27:50;;;;;;;5.88;1.42;;;;;;;;;;10399230;28;20283;-87
2023/04/25 13:32:56;;;;;;;7.75;2.63;;;;;;;;;;10400417;28;20045;-87
2023/04/25 13:37:59;;;;;;;3.50;1.30;;;;;;;;;;10423109;28;20455;-88
2023/04/25 13:43:06;;;;;;;2.28;1.15;;;;;;;;;;10417768;22;20079;-83
2023/04/25 13:48:13;;;;;;;4.13;1.52;;;;;;;;;;10418534;28;20432;-88
2023/04/25 13:53:16;;;;;;;3.75;1.67;;;;;;;;;;10412715;28;20052;-85
2023/04/25 13:58:22;;;;;;;6.65;2.00;;;;;;;;;;10422294;28;20092;-88
2023/04/25 14:03:26;;;;;;;5.37;1.70;;;;;;;;;;10421152;28;20120;-85
2023/04/25 14:08:30;;;;;;;4.13;1.98;;;;;;;;;;10432571;28;20060;-85
2023/04/25 14:13:35;;;;;;;5.65;1.75;;;;;;;;;;10408536;28;20123;-84
2023/04/25 14:18:38;;;;;;;5.57;1.40;;;;;;;;;;10412845;28;20099;-83
2023/04/25 14:23:42;;;;;;;3.58;1.40;;;;;;;;;;10418433;28;20432;-85
2023/04/25 14:28:47;;;;;;;3.22;1.42;;;;;;;;;;10409219;28;20050;-84
2023/04/25 14:33:51;;;;;;;3.60;1.20;;;;;;;;;;10393495;28;20073;-87
2023/04/25 14:38:57;;;;;;;2.63;1.00;;;;;;;;;;10409589;28;20054;-88
2023/04/25 14:44:06;;;;;;;5.50;1.63;;;;;;;;;;10395351;28;20042;-83
2023/04/25 14:49:10;;;;;;;4.60;1.50;;;;;;;;;;10409972;28;20150;-86
2023/04/25 14:54:13;;;;;;;3.20;1.30;;;;;;;;;;10423406;28;20045;-87
2023/04/25 14:59:19;;;;;;;3.13;1.10;;;;;;;;;;10422343;28;20041;-85
2023/04/25 15:04:23;;;;;;;3.05;1.20;;;;;;;;;;10407852;28;20041;-84
2023/04/25 15:09:26;;;;;;;5.68;1.58;;;;;;;;;;10402683;28;20045;-85
2023/04/25 15:14:31;;;;;;;3.72;1.85;;;;;;;;;;10435242;28;20652;-84
2023/04/25 15:19:34;;;;;;;3.70;1.60;;;;;;;;;;10438566;28;20061;-83
2023/04/25 15:24:41;;;;;;;5.28;1.98;;;;;;;;;;10424060;28;20568;-85
2023/04/25 15:29:46;;;;;;;4.53;1.67;;;;;;;;;;10413810;28;20091;-88
2023/04/25 15:34:50;;;;;;;3.63;1.38;;;;;;;;;;10430260;28;20103;-85
2023/04/25 15:40:04;;;;;;;5.70;1.73;;;;;;;;;;10413403;28;20133;-83
2023/04/25 15:45:10;;;;;;;6.60;1.10;;;;;;;;;;10429025;28;20037;-87
2023/04/25 15:50:15;;;;;;;4.63;1.55;;;;;;;;;;10423816;28;20124;-85
2023/04/25 15:55:21;;;;;;;3.92;1.42;;;;;;;;;;10449059;28;20526;-84
2023/04/25 16:00:26;;;;;;;4.78;1.02;;;;;;;;;;10451286;28;20751;-85
2023/04/25 16:05:30;;;;;;;3.35;1.30;;;;;;;;;;10441675;28;20045;-86
2023/04/25 16:10:33;;;;;;;4.70;1.90;;;;;;;;;;10437062;28;20612;-87
2023/04/25 16:15:39;;;;;;;2.55;1.35;;;;;;;;;;10432663;28;20045;-86
2023/04/25 16:20:42;;;;;;;4.25;1.50;;;;;;;;;;10418044;28;20072;-87
2023/04/25 16:25:46;;;;;;;4.43;1.77;;;;;;;;;;10426396;28;20573;-86
2023/04/25 16:30:51;;;;;;;4.88;2.13;;;;;;;;;;10442860;28;20135;-84
2023/04/25 16:35:57;;;;;;;2.95;1.20;;;;;;;;;;10451170;28;20839;-84
2023/04/25 16:41:07;;;;;;;3.92;1.50;;;;;;;;;;10454505;28;20045;-84
2023/04/25 16:46:12;;;;;;;3.83;1.65;;;;;;;;;;10469019;28;20444;-86
2023/04/25 16:51:18;;;;;;;5.13;1.45;;;;;;;;;;10453273;28;20509;-87
2023/04/25 16:56:23;;;;;;;2.88;0.93;;;;;;;;;;10439951;28;20072;-85
2023/04/25 17:01:58;;;;;;;3.15;1.17;;;;;;;;;;10434106;28;20046;-86
2023/04/25 17:07:03;;;;;;;3.07;1.30;;;;;;;;;;10389275;28;20133;-87
2023/04/25 17:12:07;;;;;;;2.72;1.15;;;;;;;;;;10430424;28;20083;-85
2023/04/25 17:17:11;;;;;;;3.38;1.23;;;;;;;;;;10425539;28;20164;-87
2023/04/25 17:22:15;;;;;;;2.28;0.90;;;;;;;;;;10443004;28;20045;-84
2023/04/25 17:27:18;;;;;;;2.47;1.00;;;;;;;;;;10425855;28;20690;-87
2023/04/25 17:32:23;;;;;;;2.53;1.10;;;;;;;;;;10418495;28;20111;-84
2023/04/25 17:37:27;;;;;;;3.65;1.20;;;;;;;;;;10448017;28;20038;-86
2023/04/25 17:42:31;;;;;;;2.90;1.25;;;;;;;;;;10432814;28;20076;-84
2023/04/25 17:47:36;;;;;;;2.92;1.50;;;;;;;;;;10432109;28;20087;-83
2023/04/25 17:52:39;;;;;;;3.22;1.55;;;;;;;;;;10439814;28;20103;-85
2023/04/25 17:57:43;;;;;;;4.32;1.50;;;;;;;;;;10438289;28;20168;-84
2023/04/25 18:02:49;;;;;;;3.10;1.30;;;;;;;;;;10433591;28;20045;-87
2023/04/25 18:07:53;;;;;;;1.58;0.93;;;;;;;;;;10423977;28;20053;-86
2023/04/25 18:12:56;;;;;;;2.15;0.85;;;;;;;;;;10428736;28;20045;-87
2023/04/25 18:18:10;;;;;;;2.33;0.90;;;;;;;;;;10424763;28;20080;-88
2023/04/25 18:23:16;;;;;;;1.77;1.17;;;;;;;;;;10411378;28;20505;-84
2023/04/25 18:28:20;;;;;;;1.05;0.82;;;;;;;;;;10420129;28;20041;-84
2023/04/25 18:33:26;;;;;;;3.50;1.30;;;;;;;;;;10418493;28;20438;-84
2023/04/25 18:38:32;;;;;;;2.30;1.00;;;;;;;;;;10428632;28;20052;-86
2023/04/25 18:43:47;;;;;;;2.35;1.27;;;;;;;;;;10403899;28;20453;-85
2023/04/25 18:48:53;;;;;;;3.17;0.98;;;;;;;;;;10429046;28;20049;-84
2023/04/25 18:54:06;;;;;;;4.35;0.98;;;;;;;;;;10418499;28;20048;-88
2023/04/25 18:59:11;;;;;;;2.10;1.00;;;;;;;;;;10427172;28;20051;-84
2023/04/25 19:04:17;;;;;;;2.10;0.80;;;;;;;;;;10408356;28;20121;-84
2023/04/25 19:09:23;;;;;;;2.17;0.93;;;;;;;;;;10416107;28;20095;-85
2023/04/25 19:14:30;;;;;;;2.40;0.98;;;;;;;;;;10426660;28;20059;-84
2023/04/25 19:19:42;;;;;;;1.85;0.88;;;;;;;;;;10404630;28;20061;-86
2023/04/25 19:24:48;;;;;;;3.55;1.15;;;;;;;;;;10401625;28;20045;-87
2023/04/25 19:30:06;;;;;;;3.30;1.00;;;;;;;;;;10415850;28;20052;-88
2023/04/25 19:35:14;;;;;;;1.55;1.10;;;;;;;;;;10400025;28;20132;-85
2023/04/25 19:40:21;;;;;;;2.38;0.82;;;;;;;;;;10405503;28;20046;-86
2023/04/25 19:45:29;;;;;;;2.45;0.80;;;;;;;;;;10430417;22;20077;-83
2023/04/25 19:50:34;;;;;;;2.97;1.30;;;;;;;;;;10420008;28;20661;-85
2023/04/25 19:55:41;;;;;;;1.23;1.02;;;;;;;;;;10414376;28;20045;-85
2023/04/25 20:00:44;;;;;;;2.65;0.90;;;;;;;;;;10403401;28;20038;-86
2023/04/25 20:05:49;;;;;;;1.52;1.05;;;;;;;;;;10412687;28;20102;-84
2023/04/25 20:10:53;;;;;;;1.35;1.20;;;;;;;;;;10429384;28;20065;-84
2023/04/25 20:15:57;;;;;;;2.10;1.17;;;;;;;;;;10410770;28;20083;-85
2023/04/25 20:21:03;;;;;;;2.17;1.73;;;;;;;;;;10426632;28;20045;-84
2023/04/25 20:26:07;;;;;;;3.80;2.20;;;;;;;;;;10430613;28;20699;-84
2023/04/25 20:31:11;;;;;;;5.75;2.10;;;;;;;;;;10416513;28;20114;-84
2023/04/25 20:36:16;;;;;;;3.65;1.90;;;;;;;;;;10410101;28;20037;-84
2023/04/25 20:41:20;;;;;;;3.03;1.35;;;;;;;;;;10410465;28;20136;-82
2023/04/25 20:46:23;;;;;;;3.53;1.85;;;;;;;;;;10423128;28;20060;-82
2023/04/25 20:51:29;;;;;;;4.00;1.70;;;;;;;;;;10398969;28;20044;-82
2023/04/25 20:56:32;;;;;;;3.10;1.87;;;;;;;;;;10416910;28;20049;-82
2023/04/25 21:01:36;;;;;;;4.25;1.70;;;;;;;;;;10409595;28;20049;-82
2023/04/25 21:06:40;;;;;;;1.85;1.30;;;;;;;;;;10402463;28;20673;-82
2023/04/25 21:11:44;;;;;;;4.70;1.85;;;;;;;;;;10410566;28;20040;-82
2023/04/25 21:16:48;;;;;;;3.03;1.40;;;;;;;;;;10395998;28;20499;-83
2023/04/25 21:21:53;;;;;;;4.40;2.22;;;;;;;;;;10430309;28;20048;-82
2023/04/25 21:26:56;;;;;;;4.03;2.10;;;;;;;;;;10399194;28;20037;-84
2023/04/25 21:32:00;;;;;;;3.28;2.10;;;;;;;;;;10422075;28;20057;-85
2023/04/25 21:37:06;;;;;;;5.63;2.33;;;;;;;;;;10430270;28;20049;-86
2023/04/25 21:42:10;;;;;;;5.80;2.50;;;;;;;;;;10428182;28;20531;-84
2023/04/25 21:47:13;;;;;;;4.55;2.58;;;;;;;;;;10415958;28;20834;-84
2023/04/25 21:52:18;;;;;;;4.47;2.60;;;;;;;;;;10416948;28;20691;-88
2023/04/25 21:57:22;;;;;;;6.20;2.05;;;;;;;;;;10433309;28;20415;-86
2023/04/25 22:02:26;;;;;;;5.35;2.22;;;;;;;;;;10436687;28;20041;-86
2023/04/25 22:07:31;;;;;;;2.92;1.90;;;;;;;;;;10425571;28;20042;-82
2023/04/25 22:12:34;;;;;;;4.25;2.05;;;;;;;;;;10418170;28;20072;-82
2023/04/25 22:17:39;;;;;;;3.65;2.30;;;;;;;;;;10417646;28;20072;-83
2023/04/25 22:22:44;;;;;;;4.32;2.22;;;;;;;;;;10406339;28;20041;-82
2023/04/25 22:27:48;;;;;;;4.13;2.63;;;;;;;;;;10399162;28;20077;-82
2023/04/25 22:32:51;;;;;;;3.35;2.33;;;;;;;;;;10399987;28;20459;-82
2023/04/25 22:37:56;;;;;;;4.32;1.90;;;;;;;;;;10422890;28;20099;-82
2023/04/25 22:43:00;;;;;;;5.18;1.80;;;;;;;;;;10411221;28;20137;-82
2023/04/25 22:48:04;;;;;;;2.85;1.65;;;;;;;;;;10419656;28;20132;-82
2023/04/25 22:53:10;;;;;;;3.22;1.67;;;;;;;;;;10411834;28;20511;-83
2023/04/25 22:58:14;;;;;;;;;;;;;;;;;;10404025;28;20052;-82
2023/04/25 23:03:18;;;;;;;2.78;1.55;;;;;;;;;;10422996;28;19955;-85
2023/04/25 23:08:23;;;;;;;2.95;1.55;;;;;;;;;;10434294;28;20084;-86
2023/04/25 23:13:26;;;;;;;3.67;1.70;;;;;;;;;;10404276;28;20059;-85
2023/04/25 23:18:31;;;;;;;2.85;1.90;;;;;;;;;;10430581;28;20207;-84
2023/04/25 23:23:36;;;;;;;3.03;1.58;;;;;;;;;;10420289;28;20045;-84
2023/04/25 23:28:40;;;;;;;2.78;1.63;;;;;;;;;;10406778;28;20041;-85
2023/04/25 23:33:44;;;;;;;2.13;1.50;;;;;;;;;;10430649;28;20064;-85
2023/04/25 23:38:49;;;;;;;2.65;1.77;;;;;;;;;;10416880;28;20044;-84
2023/04/25 23:43:52;;;;;;;3.45;1.83;;;;;;;;;;10406483;28;20423;-86
2023/04/25 23:48:57;;;;;;;3.33;1.70;;;;;;;;;;10414390;28;20476;-85
2023/04/25 23:54:03;;;;;;;2.47;1.48;;;;;;;;;;10398984;28;20084;-88
2023/04/25 23:59:07;;;;;;;2.83;1.70;;;;;;;;;;10416407;28;20041;-89
